sensor_id;sensor_type;location;lat;lon;timestamp;P1;durP1;ratioP1;P2;durP2;ratioP2
34489;SDS011;20730;49.372;7.324;2023-12-20T00:01:03;11.50;;;7.53;;
34489;SDS011;20730;49.372;7.324;2023-12-20T00:03:30;10.90;;;7.97;;
34489;SDS011;20730;49.372;7.324;2023-12-20T00:06:08;10.75;;;7.28;;
34489;SDS011;20730;49.372;7.324;2023-12-20T00:08:34;9.52;;;6.95;;
34489;SDS011;20730;49.372;7.324;2023-12-20T00:11:01;11.48;;;7.80;;
34489;SDS011;20730;49.372;7.324;2023-12-20T00:13:28;10.38;;;7.15;;
34489;SDS011;20730;49.372;7.324;2023-12-20T00:15:55;9.93;;;7.03;;
34489;SDS011;20730;49.372;7.324;2023-12-20T00:18:22;11.57;;;7.50;;
34489;SDS011;20730;49.372;7.324;2023-12-20T00:20:48;8.68;;;6.72;;
34489;SDS011;20730;49.372;7.324;2023-12-20T00:23:15;9.30;;;7.03;;
34489;SDS011;20730;49.372;7.324;2023-12-20T00:25:42;10.40;;;7.53;;
34489;SDS011;20730;49.372;7.324;2023-12-20T00:28:08;9.52;;;6.85;;
34489;SDS011;20730;49.372;7.324;2023-12-20T00:30:35;9.82;;;6.95;;
34489;SDS011;20730;49.372;7.324;2023-12-20T00:33:02;9.02;;;6.15;;
34489;SDS011;20730;49.372;7.324;2023-12-20T00:35:29;9.52;;;7.10;;
34489;SDS011;20730;49.372;7.324;2023-12-20T00:37:58;9.68;;;7.40;;
34489;SDS011;20730;49.372;7.324;2023-12-20T00:40:25;10.27;;;7.10;;
34489;SDS011;20730;49.372;7.324;2023-12-20T00:42:52;8.88;;;6.80;;
34489;SDS011;20730;49.372;7.324;2023-12-20T00:45:19;9.05;;;6.43;;
34489;SDS011;20730;49.372;7.324;2023-12-20T00:47:45;8.45;;;6.63;;
34489;SDS011;20730;49.372;7.324;2023-12-20T00:50:12;8.38;;;6.47;;
34489;SDS011;20730;49.372;7.324;2023-12-20T00:52:39;8.63;;;6.10;;
34489;SDS011;20730;49.372;7.324;2023-12-20T00:55:06;9.25;;;6.35;;
34489;SDS011;20730;49.372;7.324;2023-12-20T00:57:34;9.63;;;6.28;;
34489;SDS011;20730;49.372;7.324;2023-12-20T01:00:01;9.93;;;6.53;;
34489;SDS011;20730;49.372;7.324;2023-12-20T01:02:29;8.43;;;5.85;;
34489;SDS011;20730;49.372;7.324;2023-12-20T01:04:56;10.18;;;6.68;;
34489;SDS011;20730;49.372;7.324;2023-12-20T01:07:22;8.45;;;6.03;;
34489;SDS011;20730;49.372;7.324;2023-12-20T01:09:49;7.97;;;6.05;;
34489;SDS011;20730;49.372;7.324;2023-12-20T01:12:16;8.77;;;6.25;;
34489;SDS011;20730;49.372;7.324;2023-12-20T01:14:43;8.30;;;5.85;;
34489;SDS011;20730;49.372;7.324;2023-12-20T01:17:09;9.25;;;6.22;;
34489;SDS011;20730;49.372;7.324;2023-12-20T01:19:36;9.18;;;6.60;;
34489;SDS011;20730;49.372;7.324;2023-12-20T01:22:03;8.40;;;5.97;;
34489;SDS011;20730;49.372;7.324;2023-12-20T01:24:30;10.35;;;6.32;;
34489;SDS011;20730;49.372;7.324;2023-12-20T01:26:57;7.72;;;5.97;;
34489;SDS011;20730;49.372;7.324;2023-12-20T01:29:24;8.27;;;6.18;;
34489;SDS011;20730;49.372;7.324;2023-12-20T01:31:50;9.70;;;5.93;;
34489;SDS011;20730;49.372;7.324;2023-12-20T01:34:17;7.70;;;5.70;;
34489;SDS011;20730;49.372;7.324;2023-12-20T01:36:45;8.00;;;6.07;;
34489;SDS011;20730;49.372;7.324;2023-12-20T01:39:11;10.50;;;6.40;;
34489;SDS011;20730;49.372;7.324;2023-12-20T01:41:53;9.98;;;6.28;;
34489;SDS011;20730;49.372;7.324;2023-12-20T01:44:19;7.78;;;6.13;;
34489;SDS011;20730;49.372;7.324;2023-12-20T01:46:46;8.45;;;6.03;;
34489;SDS011;20730;49.372;7.324;2023-12-20T01:49:14;9.88;;;6.03;;
34489;SDS011;20730;49.372;7.324;2023-12-20T01:51:41;9.18;;;6.57;;
34489;SDS011;20730;49.372;7.324;2023-12-20T01:54:08;8.25;;;6.22;;
34489;SDS011;20730;49.372;7.324;2023-12-20T01:56:35;11.32;;;6.55;;
34489;SDS011;20730;49.372;7.324;2023-12-20T01:59:02;9.10;;;6.05;;
34489;SDS011;20730;49.372;7.324;2023-12-20T02:01:30;8.93;;;6.45;;
34489;SDS011;20730;49.372;7.324;2023-12-20T02:03:57;9.13;;;6.10;;
34489;SDS011;20730;49.372;7.324;2023-12-20T02:06:24;8.52;;;6.32;;
34489;SDS011;20730;49.372;7.324;2023-12-20T02:08:57;7.63;;;6.10;;
34489;SDS011;20730;49.372;7.324;2023-12-20T02:11:25;9.75;;;6.68;;
34489;SDS011;20730;49.372;7.324;2023-12-20T02:13:52;9.20;;;6.47;;
34489;SDS011;20730;49.372;7.324;2023-12-20T02:16:20;8.48;;;6.57;;
34489;SDS011;20730;49.372;7.324;2023-12-20T02:18:47;8.10;;;6.00;;
34489;SDS011;20730;49.372;7.324;2023-12-20T02:21:15;8.52;;;6.45;;
34489;SDS011;20730;49.372;7.324;2023-12-20T02:23:42;8.98;;;6.78;;
34489;SDS011;20730;49.372;7.324;2023-12-20T02:26:08;10.15;;;7.15;;
34489;SDS011;20730;49.372;7.324;2023-12-20T02:28:35;9.35;;;7.50;;
34489;SDS011;20730;49.372;7.324;2023-12-20T02:31:02;10.32;;;7.20;;
34489;SDS011;20730;49.372;7.324;2023-12-20T02:33:29;10.43;;;8.07;;
34489;SDS011;20730;49.372;7.324;2023-12-20T02:35:56;11.80;;;8.05;;
34489;SDS011;20730;49.372;7.324;2023-12-20T02:38:23;10.68;;;8.10;;
34489;SDS011;20730;49.372;7.324;2023-12-20T02:40:49;11.60;;;8.60;;
34489;SDS011;20730;49.372;7.324;2023-12-20T02:43:16;13.73;;;9.40;;
34489;SDS011;20730;49.372;7.324;2023-12-20T02:45:43;12.18;;;9.13;;
34489;SDS011;20730;49.372;7.324;2023-12-20T02:48:10;14.75;;;10.40;;
34489;SDS011;20730;49.372;7.324;2023-12-20T02:50:37;11.82;;;8.85;;
34489;SDS011;20730;49.372;7.324;2023-12-20T02:53:04;14.15;;;9.57;;
34489;SDS011;20730;49.372;7.324;2023-12-20T02:55:30;15.02;;;9.95;;
34489;SDS011;20730;49.372;7.324;2023-12-20T02:57:57;14.32;;;9.95;;
34489;SDS011;20730;49.372;7.324;2023-12-20T03:00:24;13.27;;;9.15;;
34489;SDS011;20730;49.372;7.324;2023-12-20T03:02:51;16.00;;;10.57;;
34489;SDS011;20730;49.372;7.324;2023-12-20T03:05:18;17.27;;;11.85;;
34489;SDS011;20730;49.372;7.324;2023-12-20T03:07:45;14.60;;;10.23;;
34489;SDS011;20730;49.372;7.324;2023-12-20T03:10:12;16.83;;;10.50;;
34489;SDS011;20730;49.372;7.324;2023-12-20T03:12:49;15.02;;;9.70;;
34489;SDS011;20730;49.372;7.324;2023-12-20T03:15:16;14.05;;;9.98;;
34489;SDS011;20730;49.372;7.324;2023-12-20T03:17:43;14.25;;;10.48;;
34489;SDS011;20730;49.372;7.324;2023-12-20T03:20:10;15.38;;;10.10;;
34489;SDS011;20730;49.372;7.324;2023-12-20T03:22:37;16.27;;;10.13;;
34489;SDS011;20730;49.372;7.324;2023-12-20T03:25:04;17.63;;;11.23;;
34489;SDS011;20730;49.372;7.324;2023-12-20T03:27:31;16.50;;;10.55;;
34489;SDS011;20730;49.372;7.324;2023-12-20T03:29:57;19.15;;;11.73;;
34489;SDS011;20730;49.372;7.324;2023-12-20T03:32:24;17.35;;;11.85;;
34489;SDS011;20730;49.372;7.324;2023-12-20T03:34:51;17.38;;;10.88;;
34489;SDS011;20730;49.372;7.324;2023-12-20T03:37:18;20.15;;;12.05;;
34489;SDS011;20730;49.372;7.324;2023-12-20T03:39:44;20.55;;;12.75;;
34489;SDS011;20730;49.372;7.324;2023-12-20T03:42:11;20.02;;;12.30;;
34489;SDS011;20730;49.372;7.324;2023-12-20T03:44:39;18.75;;;11.82;;
34489;SDS011;20730;49.372;7.324;2023-12-20T03:47:06;19.10;;;11.73;;
34489;SDS011;20730;49.372;7.324;2023-12-20T03:49:33;18.73;;;11.43;;
34489;SDS011;20730;49.372;7.324;2023-12-20T03:52:00;17.75;;;11.45;;
34489;SDS011;20730;49.372;7.324;2023-12-20T03:54:27;20.98;;;12.27;;
34489;SDS011;20730;49.372;7.324;2023-12-20T03:56:53;18.55;;;12.43;;
34489;SDS011;20730;49.372;7.324;2023-12-20T03:59:20;18.38;;;11.45;;
34489;SDS011;20730;49.372;7.324;2023-12-20T04:01:47;18.13;;;11.23;;
34489;SDS011;20730;49.372;7.324;2023-12-20T04:04:13;17.27;;;11.05;;
34489;SDS011;20730;49.372;7.324;2023-12-20T04:06:40;16.33;;;10.88;;
34489;SDS011;20730;49.372;7.324;2023-12-20T04:09:07;15.35;;;10.10;;
34489;SDS011;20730;49.372;7.324;2023-12-20T04:11:36;17.55;;;9.82;;
34489;SDS011;20730;49.372;7.324;2023-12-20T04:14:03;14.93;;;9.85;;
34489;SDS011;20730;49.372;7.324;2023-12-20T04:16:31;13.73;;;9.15;;
34489;SDS011;20730;49.372;7.324;2023-12-20T04:18:57;13.15;;;8.73;;
34489;SDS011;20730;49.372;7.324;2023-12-20T04:21:24;11.90;;;8.25;;
34489;SDS011;20730;49.372;7.324;2023-12-20T04:23:51;11.35;;;8.57;;
34489;SDS011;20730;49.372;7.324;2023-12-20T04:26:17;11.23;;;7.55;;
34489;SDS011;20730;49.372;7.324;2023-12-20T04:28:44;11.90;;;7.97;;
34489;SDS011;20730;49.372;7.324;2023-12-20T04:31:11;10.93;;;7.85;;
34489;SDS011;20730;49.372;7.324;2023-12-20T04:33:38;10.70;;;7.90;;
34489;SDS011;20730;49.372;7.324;2023-12-20T04:36:04;9.57;;;6.60;;
34489;SDS011;20730;49.372;7.324;2023-12-20T04:38:31;7.97;;;6.15;;
34489;SDS011;20730;49.372;7.324;2023-12-20T04:40:58;8.75;;;6.13;;
34489;SDS011;20730;49.372;7.324;2023-12-20T04:43:25;6.72;;;5.25;;
34489;SDS011;20730;49.372;7.324;2023-12-20T04:45:52;5.97;;;4.82;;
34489;SDS011;20730;49.372;7.324;2023-12-20T04:48:18;7.18;;;4.63;;
34489;SDS011;20730;49.372;7.324;2023-12-20T04:50:45;5.97;;;4.63;;
34489;SDS011;20730;49.372;7.324;2023-12-20T04:53:12;6.40;;;4.15;;
34489;SDS011;20730;49.372;7.324;2023-12-20T04:55:39;5.57;;;4.45;;
34489;SDS011;20730;49.372;7.324;2023-12-20T04:58:05;4.45;;;3.90;;
34489;SDS011;20730;49.372;7.324;2023-12-20T05:00:32;5.15;;;4.20;;
34489;SDS011;20730;49.372;7.324;2023-12-20T05:02:59;4.90;;;3.97;;
34489;SDS011;20730;49.372;7.324;2023-12-20T05:05:26;4.28;;;3.67;;
34489;SDS011;20730;49.372;7.324;2023-12-20T05:07:53;4.07;;;3.17;;
34489;SDS011;20730;49.372;7.324;2023-12-20T05:10:19;4.82;;;3.22;;
34489;SDS011;20730;49.372;7.324;2023-12-20T05:12:46;4.97;;;3.15;;
34489;SDS011;20730;49.372;7.324;2023-12-20T05:15:13;3.58;;;2.83;;
34489;SDS011;20730;49.372;7.324;2023-12-20T05:17:40;3.45;;;2.85;;
34489;SDS011;20730;49.372;7.324;2023-12-20T05:20:07;5.68;;;3.00;;
34489;SDS011;20730;49.372;7.324;2023-12-20T05:22:34;5.25;;;3.00;;
34489;SDS011;20730;49.372;7.324;2023-12-20T05:25:01;8.80;;;2.35;;
34489;SDS011;20730;49.372;7.324;2023-12-20T05:27:27;4.45;;;2.35;;
34489;SDS011;20730;49.372;7.324;2023-12-20T05:29:54;6.80;;;1.80;;
34489;SDS011;20730;49.372;7.324;2023-12-20T05:32:24;6.88;;;1.75;;
34489;SDS011;20730;49.372;7.324;2023-12-20T05:34:51;4.57;;;2.05;;
34489;SDS011;20730;49.372;7.324;2023-12-20T05:37:18;4.32;;;1.48;;
34489;SDS011;20730;49.372;7.324;2023-12-20T05:39:44;5.25;;;1.70;;
34489;SDS011;20730;49.372;7.324;2023-12-20T05:42:11;3.65;;;1.45;;
34489;SDS011;20730;49.372;7.324;2023-12-20T05:44:38;5.68;;;1.20;;
34489;SDS011;20730;49.372;7.324;2023-12-20T05:47:04;3.85;;;1.42;;
34489;SDS011;20730;49.372;7.324;2023-12-20T05:49:31;3.20;;;1.42;;
34489;SDS011;20730;49.372;7.324;2023-12-20T05:51:58;5.30;;;1.80;;
34489;SDS011;20730;49.372;7.324;2023-12-20T05:54:25;9.68;;;3.42;;
34489;SDS011;20730;49.372;7.324;2023-12-20T05:56:51;8.93;;;3.13;;
34489;SDS011;20730;49.372;7.324;2023-12-20T05:59:18;6.10;;;2.85;;
34489;SDS011;20730;49.372;7.324;2023-12-20T06:01:44;4.00;;;2.35;;
34489;SDS011;20730;49.372;7.324;2023-12-20T06:04:11;6.13;;;2.05;;
34489;SDS011;20730;49.372;7.324;2023-12-20T06:06:42;8.90;;;2.50;;
34489;SDS011;20730;49.372;7.324;2023-12-20T06:09:09;5.65;;;2.17;;
34489;SDS011;20730;49.372;7.324;2023-12-20T06:11:37;5.85;;;2.45;;
34489;SDS011;20730;49.372;7.324;2023-12-20T06:14:04;8.30;;;2.50;;
34489;SDS011;20730;49.372;7.324;2023-12-20T06:16:31;8.15;;;2.72;;
34489;SDS011;20730;49.372;7.324;2023-12-20T06:18:57;4.85;;;2.60;;
34489;SDS011;20730;49.372;7.324;2023-12-20T06:21:24;5.72;;;2.60;;
34489;SDS011;20730;49.372;7.324;2023-12-20T06:23:51;4.40;;;2.42;;
34489;SDS011;20730;49.372;7.324;2023-12-20T06:26:18;8.35;;;2.50;;
34489;SDS011;20730;49.372;7.324;2023-12-20T06:28:44;7.95;;;3.33;;
34489;SDS011;20730;49.372;7.324;2023-12-20T06:31:11;9.35;;;3.38;;
34489;SDS011;20730;49.372;7.324;2023-12-20T06:33:38;7.10;;;3.38;;
34489;SDS011;20730;49.372;7.324;2023-12-20T06:36:07;8.90;;;3.47;;
34489;SDS011;20730;49.372;7.324;2023-12-20T06:38:34;6.32;;;3.38;;
34489;SDS011;20730;49.372;7.324;2023-12-20T06:41:00;9.80;;;3.20;;
34489;SDS011;20730;49.372;7.324;2023-12-20T06:43:27;8.32;;;2.92;;
34489;SDS011;20730;49.372;7.324;2023-12-20T06:46:12;5.55;;;2.55;;
34489;SDS011;20730;49.372;7.324;2023-12-20T06:48:39;8.35;;;2.35;;
34489;SDS011;20730;49.372;7.324;2023-12-20T06:51:10;9.60;;;2.88;;
34489;SDS011;20730;49.372;7.324;2023-12-20T06:53:38;7.97;;;2.45;;
34489;SDS011;20730;49.372;7.324;2023-12-20T06:56:05;6.53;;;2.38;;
34489;SDS011;20730;49.372;7.324;2023-12-20T06:58:32;5.35;;;1.98;;
34489;SDS011;20730;49.372;7.324;2023-12-20T07:00:58;7.60;;;2.17;;
34489;SDS011;20730;49.372;7.324;2023-12-20T07:03:25;12.48;;;2.20;;
34489;SDS011;20730;49.372;7.324;2023-12-20T07:05:52;10.98;;;2.20;;
34489;SDS011;20730;49.372;7.324;2023-12-20T07:08:18;8.98;;;2.13;;
34489;SDS011;20730;49.372;7.324;2023-12-20T07:10:45;7.60;;;1.90;;
34489;SDS011;20730;49.372;7.324;2023-12-20T07:13:12;9.43;;;1.90;;
34489;SDS011;20730;49.372;7.324;2023-12-20T07:15:40;9.23;;;2.13;;
34489;SDS011;20730;49.372;7.324;2023-12-20T07:18:07;11.48;;;2.10;;
34489;SDS011;20730;49.372;7.324;2023-12-20T07:20:33;9.63;;;1.90;;
34489;SDS011;20730;49.372;7.324;2023-12-20T07:23:00;9.55;;;2.42;;
34489;SDS011;20730;49.372;7.324;2023-12-20T07:25:27;10.77;;;2.30;;
34489;SDS011;20730;49.372;7.324;2023-12-20T07:27:54;7.60;;;2.72;;
34489;SDS011;20730;49.372;7.324;2023-12-20T07:30:21;5.70;;;2.30;;
34489;SDS011;20730;49.372;7.324;2023-12-20T07:32:47;13.63;;;3.97;;
34489;SDS011;20730;49.372;7.324;2023-12-20T07:35:17;10.65;;;3.00;;
34489;SDS011;20730;49.372;7.324;2023-12-20T07:37:44;9.02;;;2.95;;
34489;SDS011;20730;49.372;7.324;2023-12-20T07:40:12;6.28;;;2.63;;
34489;SDS011;20730;49.372;7.324;2023-12-20T07:42:38;7.97;;;2.58;;
34489;SDS011;20730;49.372;7.324;2023-12-20T07:45:05;7.63;;;2.38;;
34489;SDS011;20730;49.372;7.324;2023-12-20T07:47:32;11.23;;;2.92;;
34489;SDS011;20730;49.372;7.324;2023-12-20T07:49:59;7.80;;;2.70;;
34489;SDS011;20730;49.372;7.324;2023-12-20T07:52:26;10.45;;;3.03;;
34489;SDS011;20730;49.372;7.324;2023-12-20T07:54:52;10.80;;;2.58;;
34489;SDS011;20730;49.372;7.324;2023-12-20T07:57:19;11.38;;;3.30;;
34489;SDS011;20730;49.372;7.324;2023-12-20T07:59:46;8.45;;;2.50;;
34489;SDS011;20730;49.372;7.324;2023-12-20T08:02:12;10.90;;;2.97;;
34489;SDS011;20730;49.372;7.324;2023-12-20T08:04:39;9.68;;;3.70;;
34489;SDS011;20730;49.372;7.324;2023-12-20T08:07:07;13.93;;;3.80;;
34489;SDS011;20730;49.372;7.324;2023-12-20T08:09:34;9.65;;;4.10;;
34489;SDS011;20730;49.372;7.324;2023-12-20T08:12:03;13.18;;;3.75;;
34489;SDS011;20730;49.372;7.324;2023-12-20T08:14:30;14.18;;;3.65;;
34489;SDS011;20730;49.372;7.324;2023-12-20T08:16:57;12.25;;;4.45;;
34489;SDS011;20730;49.372;7.324;2023-12-20T08:19:24;15.75;;;4.38;;
34489;SDS011;20730;49.372;7.324;2023-12-20T08:21:51;15.60;;;5.32;;
34489;SDS011;20730;49.372;7.324;2023-12-20T08:24:17;10.02;;;3.47;;
34489;SDS011;20730;49.372;7.324;2023-12-20T08:26:44;11.20;;;3.63;;
34489;SDS011;20730;49.372;7.324;2023-12-20T08:29:13;14.52;;;4.10;;
34489;SDS011;20730;49.372;7.324;2023-12-20T08:31:39;15.10;;;4.20;;
34489;SDS011;20730;49.372;7.324;2023-12-20T08:34:06;10.18;;;3.70;;
34489;SDS011;20730;49.372;7.324;2023-12-20T08:36:34;6.82;;;3.25;;
34489;SDS011;20730;49.372;7.324;2023-12-20T08:39:01;10.52;;;3.20;;
34489;SDS011;20730;49.372;7.324;2023-12-20T08:41:29;14.02;;;3.00;;
34489;SDS011;20730;49.372;7.324;2023-12-20T08:43:56;11.40;;;3.70;;
34489;SDS011;20730;49.372;7.324;2023-12-20T08:46:23;9.73;;;2.72;;
34489;SDS011;20730;49.372;7.324;2023-12-20T08:48:50;9.32;;;3.90;;
34489;SDS011;20730;49.372;7.324;2023-12-20T08:51:17;11.43;;;3.30;;
34489;SDS011;20730;49.372;7.324;2023-12-20T08:53:43;14.75;;;3.90;;
34489;SDS011;20730;49.372;7.324;2023-12-20T08:56:11;13.32;;;3.03;;
34489;SDS011;20730;49.372;7.324;2023-12-20T08:58:38;11.75;;;3.58;;
34489;SDS011;20730;49.372;7.324;2023-12-20T09:01:05;10.05;;;3.28;;
34489;SDS011;20730;49.372;7.324;2023-12-20T09:03:32;9.40;;;3.55;;
34489;SDS011;20730;49.372;7.324;2023-12-20T09:05:58;10.77;;;3.72;;
34489;SDS011;20730;49.372;7.324;2023-12-20T09:08:25;14.27;;;4.05;;
34489;SDS011;20730;49.372;7.324;2023-12-20T09:10:52;14.10;;;4.10;;
34489;SDS011;20730;49.372;7.324;2023-12-20T09:13:18;16.02;;;5.38;;
34489;SDS011;20730;49.372;7.324;2023-12-20T09:15:45;10.25;;;4.45;;
34489;SDS011;20730;49.372;7.324;2023-12-20T09:18:12;11.25;;;4.00;;
34489;SDS011;20730;49.372;7.324;2023-12-20T09:20:39;14.38;;;3.85;;
34489;SDS011;20730;49.372;7.324;2023-12-20T09:23:09;9.52;;;3.58;;
34489;SDS011;20730;49.372;7.324;2023-12-20T09:25:36;12.02;;;4.03;;
34489;SDS011;20730;49.372;7.324;2023-12-20T09:28:03;12.38;;;4.75;;
34489;SDS011;20730;49.372;7.324;2023-12-20T09:30:29;18.58;;;5.28;;
34489;SDS011;20730;49.372;7.324;2023-12-20T09:32:56;11.38;;;4.47;;
34489;SDS011;20730;49.372;7.324;2023-12-20T09:35:23;13.68;;;4.68;;
34489;SDS011;20730;49.372;7.324;2023-12-20T09:37:50;13.82;;;4.55;;
34489;SDS011;20730;49.372;7.324;2023-12-20T09:40:20;10.90;;;4.57;;
34489;SDS011;20730;49.372;7.324;2023-12-20T09:43:28;14.45;;;4.55;;
34489;SDS011;20730;49.372;7.324;2023-12-20T09:46:15;16.70;;;4.80;;
34489;SDS011;20730;49.372;7.324;2023-12-20T09:49:03;12.38;;;5.10;;
34489;SDS011;20730;49.372;7.324;2023-12-20T09:51:45;14.30;;;4.82;;
34489;SDS011;20730;49.372;7.324;2023-12-20T09:54:44;15.23;;;5.03;;
34489;SDS011;20730;49.372;7.324;2023-12-20T09:57:31;12.25;;;4.80;;
34489;SDS011;20730;49.372;7.324;2023-12-20T10:00:11;10.68;;;4.75;;
34489;SDS011;20730;49.372;7.324;2023-12-20T10:03:21;12.68;;;4.43;;
34489;SDS011;20730;49.372;7.324;2023-12-20T10:09:06;16.90;;;5.00;;
34489;SDS011;20730;49.372;7.324;2023-12-20T10:11:54;16.08;;;5.00;;
34489;SDS011;20730;49.372;7.324;2023-12-20T10:14:42;16.08;;;4.30;;
34489;SDS011;20730;49.372;7.324;2023-12-20T10:17:26;16.02;;;5.20;;
34489;SDS011;20730;49.372;7.324;2023-12-20T10:20:13;11.38;;;4.45;;
34489;SDS011;20730;49.372;7.324;2023-12-20T10:23:00;14.68;;;4.57;;
34489;SDS011;20730;49.372;7.324;2023-12-20T10:29:00;15.20;;;4.25;;
34489;SDS011;20730;49.372;7.324;2023-12-20T10:31:41;13.57;;;4.25;;
34489;SDS011;20730;49.372;7.324;2023-12-20T10:34:12;11.65;;;4.38;;
34489;SDS011;20730;49.372;7.324;2023-12-20T10:36:54;14.43;;;4.15;;
34489;SDS011;20730;49.372;7.324;2023-12-20T10:39:27;10.50;;;4.13;;
34489;SDS011;20730;49.372;7.324;2023-12-20T10:42:05;18.23;;;4.38;;
34489;SDS011;20730;49.372;7.324;2023-12-20T10:45:04;13.93;;;4.13;;
34489;SDS011;20730;49.372;7.324;2023-12-20T10:47:39;15.73;;;4.93;;
34489;SDS011;20730;49.372;7.324;2023-12-20T10:50:17;11.48;;;3.72;;
34489;SDS011;20730;49.372;7.324;2023-12-20T10:52:56;14.35;;;4.18;;
34489;SDS011;20730;49.372;7.324;2023-12-20T10:55:35;15.57;;;4.32;;
34489;SDS011;20730;49.372;7.324;2023-12-20T10:58:29;12.63;;;4.15;;
34489;SDS011;20730;49.372;7.324;2023-12-20T11:01:45;12.82;;;3.58;;
34489;SDS011;20730;49.372;7.324;2023-12-20T11:07:45;9.80;;;3.97;;
34489;SDS011;20730;49.372;7.324;2023-12-20T11:10:57;13.93;;;3.42;;
34489;SDS011;20730;49.372;7.324;2023-12-20T11:14:16;8.40;;;3.03;;
34489;SDS011;20730;49.372;7.324;2023-12-20T11:17:21;17.33;;;3.80;;
34489;SDS011;20730;49.372;7.324;2023-12-20T11:22:54;14.30;;;4.07;;
34489;SDS011;20730;49.372;7.324;2023-12-20T11:25:48;16.27;;;3.65;;
34489;SDS011;20730;49.372;7.324;2023-12-20T11:28:33;10.80;;;3.65;;
34489;SDS011;20730;49.372;7.324;2023-12-20T11:31:15;11.00;;;3.22;;
34489;SDS011;20730;49.372;7.324;2023-12-20T11:33:54;8.43;;;3.35;;
34489;SDS011;20730;49.372;7.324;2023-12-20T11:36:40;12.98;;;3.08;;
34489;SDS011;20730;49.372;7.324;2023-12-20T11:39:17;11.60;;;2.80;;
34489;SDS011;20730;49.372;7.324;2023-12-20T11:42:04;6.57;;;2.53;;
34489;SDS011;20730;49.372;7.324;2023-12-20T11:44:55;15.95;;;3.28;;
34489;SDS011;20730;49.372;7.324;2023-12-20T11:50:37;13.50;;;3.47;;
34489;SDS011;20730;49.372;7.324;2023-12-20T11:53:18;9.65;;;2.85;;
34489;SDS011;20730;49.372;7.324;2023-12-20T11:56:05;9.85;;;3.00;;
34489;SDS011;20730;49.372;7.324;2023-12-20T11:58:54;17.65;;;2.90;;
34489;SDS011;20730;49.372;7.324;2023-12-20T12:01:50;11.82;;;2.42;;
34489;SDS011;20730;49.372;7.324;2023-12-20T12:04:34;10.15;;;2.63;;
34489;SDS011;20730;49.372;7.324;2023-12-20T12:07:20;16.25;;;2.80;;
34489;SDS011;20730;49.372;7.324;2023-12-20T12:09:57;9.98;;;2.75;;
34489;SDS011;20730;49.372;7.324;2023-12-20T12:12:59;7.88;;;2.60;;
34489;SDS011;20730;49.372;7.324;2023-12-20T12:15:50;12.32;;;2.40;;
34489;SDS011;20730;49.372;7.324;2023-12-20T12:18:32;11.23;;;2.92;;
34489;SDS011;20730;49.372;7.324;2023-12-20T12:21:46;13.20;;;2.30;;
34489;SDS011;20730;49.372;7.324;2023-12-20T12:24:39;12.13;;;2.40;;
34489;SDS011;20730;49.372;7.324;2023-12-20T12:27:50;4.63;;;1.48;;
34489;SDS011;20730;49.372;7.324;2023-12-20T12:30:27;7.78;;;2.22;;
34489;SDS011;20730;49.372;7.324;2023-12-20T12:33:15;8.65;;;2.20;;
34489;SDS011;20730;49.372;7.324;2023-12-20T12:36:16;10.80;;;2.78;;
34489;SDS011;20730;49.372;7.324;2023-12-20T12:38:58;10.73;;;2.20;;
34489;SDS011;20730;49.372;7.324;2023-12-20T12:41:41;13.18;;;2.40;;
34489;SDS011;20730;49.372;7.324;2023-12-20T12:44:37;9.50;;;2.63;;
34489;SDS011;20730;49.372;7.324;2023-12-20T12:50:12;9.50;;;2.80;;
34489;SDS011;20730;49.372;7.324;2023-12-20T12:53:15;8.57;;;2.20;;
34489;SDS011;20730;49.372;7.324;2023-12-20T12:55:52;14.77;;;2.75;;
34489;SDS011;20730;49.372;7.324;2023-12-20T12:58:55;7.25;;;2.35;;
34489;SDS011;20730;49.372;7.324;2023-12-20T13:01:40;10.02;;;2.15;;
34489;SDS011;20730;49.372;7.324;2023-12-20T13:04:27;10.10;;;2.10;;
34489;SDS011;20730;49.372;7.324;2023-12-20T13:10:52;17.13;;;3.03;;
34489;SDS011;20730;49.372;7.324;2023-12-20T13:13:42;10.45;;;2.33;;
34489;SDS011;20730;49.372;7.324;2023-12-20T13:16:27;14.25;;;1.90;;
34489;SDS011;20730;49.372;7.324;2023-12-20T13:19:09;11.90;;;2.38;;
34489;SDS011;20730;49.372;7.324;2023-12-20T13:22:07;11.10;;;1.63;;
34489;SDS011;20730;49.372;7.324;2023-12-20T13:25:44;8.93;;;2.08;;
34489;SDS011;20730;49.372;7.324;2023-12-20T13:28:46;13.05;;;2.20;;
34489;SDS011;20730;49.372;7.324;2023-12-20T13:31:37;9.88;;;2.17;;
34489;SDS011;20730;49.372;7.324;2023-12-20T13:34:17;10.23;;;2.50;;
34489;SDS011;20730;49.372;7.324;2023-12-20T13:40:04;11.20;;;2.30;;
34489;SDS011;20730;49.372;7.324;2023-12-20T13:45:30;8.80;;;2.08;;
34489;SDS011;20730;49.372;7.324;2023-12-20T13:48:18;12.63;;;2.28;;
34489;SDS011;20730;49.372;7.324;2023-12-20T13:51:04;8.68;;;1.80;;
34489;SDS011;20730;49.372;7.324;2023-12-20T13:54:03;9.38;;;2.05;;
34489;SDS011;20730;49.372;7.324;2023-12-20T13:56:58;11.98;;;2.63;;
34489;SDS011;20730;49.372;7.324;2023-12-20T13:59:57;14.45;;;2.85;;
34489;SDS011;20730;49.372;7.324;2023-12-20T14:02:43;17.83;;;3.00;;
34489;SDS011;20730;49.372;7.324;2023-12-20T14:05:20;10.07;;;3.15;;
34489;SDS011;20730;49.372;7.324;2023-12-20T14:08:06;15.10;;;2.92;;
34489;SDS011;20730;49.372;7.324;2023-12-20T14:10:43;13.98;;;3.42;;
34489;SDS011;20730;49.372;7.324;2023-12-20T14:13:22;12.82;;;3.40;;
34489;SDS011;20730;49.372;7.324;2023-12-20T14:16:29;10.40;;;3.22;;
34489;SDS011;20730;49.372;7.324;2023-12-20T14:19:21;14.10;;;3.28;;
34489;SDS011;20730;49.372;7.324;2023-12-20T14:22:08;13.25;;;2.80;;
34489;SDS011;20730;49.372;7.324;2023-12-20T14:24:52;11.93;;;2.80;;
34489;SDS011;20730;49.372;7.324;2023-12-20T14:27:41;16.50;;;3.17;;
34489;SDS011;20730;49.372;7.324;2023-12-20T14:30:21;13.10;;;2.97;;
34489;SDS011;20730;49.372;7.324;2023-12-20T14:33:11;12.18;;;3.13;;
34489;SDS011;20730;49.372;7.324;2023-12-20T14:36:10;13.75;;;2.80;;
34489;SDS011;20730;49.372;7.324;2023-12-20T14:38:59;11.02;;;3.03;;
34489;SDS011;20730;49.372;7.324;2023-12-20T14:41:33;12.93;;;3.10;;
34489;SDS011;20730;49.372;7.324;2023-12-20T14:44:18;18.67;;;3.72;;
34489;SDS011;20730;49.372;7.324;2023-12-20T14:47:19;15.48;;;3.47;;
34489;SDS011;20730;49.372;7.324;2023-12-20T14:50:13;15.80;;;3.08;;
34489;SDS011;20730;49.372;7.324;2023-12-20T14:53:24;13.10;;;3.55;;
34489;SDS011;20730;49.372;7.324;2023-12-20T14:56:09;11.98;;;2.95;;
34489;SDS011;20730;49.372;7.324;2023-12-20T14:59:17;18.77;;;3.72;;
34489;SDS011;20730;49.372;7.324;2023-12-20T15:01:56;11.75;;;2.97;;
34489;SDS011;20730;49.372;7.324;2023-12-20T15:04:40;13.65;;;2.90;;
34489;SDS011;20730;49.372;7.324;2023-12-20T15:07:19;14.20;;;3.75;;
34489;SDS011;20730;49.372;7.324;2023-12-20T15:10:11;11.50;;;3.17;;
34489;SDS011;20730;49.372;7.324;2023-12-20T15:13:06;11.90;;;3.50;;
34489;SDS011;20730;49.372;7.324;2023-12-20T15:15:38;17.23;;;3.88;;
34489;SDS011;20730;49.372;7.324;2023-12-20T15:18:15;7.78;;;3.17;;
34489;SDS011;20730;49.372;7.324;2023-12-20T15:21:07;15.40;;;4.03;;
34489;SDS011;20730;49.372;7.324;2023-12-20T15:23:38;11.55;;;4.15;;
34489;SDS011;20730;49.372;7.324;2023-12-20T15:26:23;19.52;;;5.30;;
34489;SDS011;20730;49.372;7.324;2023-12-20T15:29:15;16.42;;;4.78;;
34489;SDS011;20730;49.372;7.324;2023-12-20T15:32:01;14.23;;;4.53;;
34489;SDS011;20730;49.372;7.324;2023-12-20T15:34:46;17.33;;;4.97;;
34489;SDS011;20730;49.372;7.324;2023-12-20T15:37:23;13.45;;;4.75;;
34489;SDS011;20730;49.372;7.324;2023-12-20T15:40:12;8.65;;;3.65;;
34489;SDS011;20730;49.372;7.324;2023-12-20T15:43:07;13.25;;;4.30;;
34489;SDS011;20730;49.372;7.324;2023-12-20T15:45:57;10.90;;;4.25;;
34489;SDS011;20730;49.372;7.324;2023-12-20T15:48:48;21.02;;;3.97;;